createdAt,value
2018-07-08T00:01:36.578Z,87.90
2018-07-08T00:07:42.837Z,87.60
2018-07-08T00:10:50.742Z,87.40
2018-07-08T00:13:53.908Z,87.60
2018-07-08T00:16:57.141Z,87.20
2018-07-08T00:20:00.390Z,87.00
2018-07-08T00:23:03.539Z,86.40
2018-07-08T00:26:06.703Z,87.10
2018-07-08T00:29:09.865Z,88.70
2018-07-08T00:32:13.267Z,88.50
2018-07-08T00:35:16.470Z,88.80
2018-07-08T00:38:19.664Z,88.90
2018-07-08T00:41:22.824Z,89.40
2018-07-08T00:44:26.033Z,89.70
2018-07-08T00:47:29.164Z,90.10
2018-07-08T00:50:32.341Z,88.90
2018-07-08T00:53:35.531Z,89.10
2018-07-08T00:56:38.718Z,90.30
2018-07-08T00:59:41.930Z,91.30
2018-07-08T01:02:45.081Z,89.80
2018-07-08T01:05:48.240Z,90.60
2018-07-08T01:08:51.452Z,90.70
2018-07-08T01:11:54.548Z,90.30
2018-07-08T01:14:57.777Z,89.60
2018-07-08T01:18:00.924Z,90.10
2018-07-08T01:21:04.152Z,89.30
2018-07-08T01:24:07.404Z,90.40
2018-07-08T01:27:10.624Z,90.60
2018-07-08T01:30:14.808Z,90.50
2018-07-08T01:33:18.067Z,90.50
2018-07-08T01:39:24.292Z,89.80
2018-07-08T01:42:27.909Z,90.40
2018-07-08T01:45:31.147Z,90.60
2018-07-08T01:48:34.399Z,90.40
2018-07-08T01:51:37.613Z,89.30
2018-07-08T01:54:41.414Z,90.80
2018-07-08T01:57:44.648Z,91.10
2018-07-08T02:00:47.887Z,91.00
2018-07-08T02:03:52.100Z,91.60
2018-07-08T02:06:55.364Z,91.30
2018-07-08T02:09:58.584Z,90.50
2018-07-08T02:13:01.844Z,91.00
2018-07-08T02:16:05.200Z,91.30
2018-07-08T02:19:08.416Z,91.10
2018-07-08T02:22:11.698Z,91.70
2018-07-08T02:25:14.955Z,92.20
2018-07-08T02:28:18.201Z,91.10
2018-07-08T02:31:21.472Z,91.80
2018-07-08T02:34:25.021Z,91.90
2018-07-08T02:37:28.378Z,92.80
2018-07-08T02:40:31.695Z,92.70
2018-07-08T02:43:34.945Z,92.70
2018-07-08T02:46:38.388Z,93.60
2018-07-08T02:49:41.663Z,92.80
2018-07-08T02:52:44.859Z,93.10
2018-07-08T02:55:48.157Z,93.30
2018-07-08T02:58:51.391Z,93.60
2018-07-08T03:01:54.627Z,93.00
2018-07-08T03:04:58.020Z,92.20
2018-07-08T03:11:04.176Z,91.50
2018-07-08T03:14:08.339Z,90.60
2018-07-08T03:17:11.504Z,90.70
2018-07-08T03:20:14.668Z,90.50
2018-07-08T03:23:18.261Z,90.60
2018-07-08T03:26:21.391Z,90.40
2018-07-08T03:29:24.548Z,91.30
2018-07-08T03:32:27.698Z,90.00
2018-07-08T03:35:30.856Z,90.10
2018-07-08T03:38:34.137Z,89.00
2018-07-08T03:41:37.807Z,88.90
2018-07-08T03:44:41.287Z,88.80
2018-07-08T03:47:44.570Z,89.20
2018-07-08T03:50:47.939Z,88.80
2018-07-08T03:53:51.168Z,89.70
2018-07-08T03:56:54.661Z,89.60
2018-07-08T03:59:58.244Z,89.10
2018-07-08T04:03:01.691Z,89.70
2018-07-08T04:06:05.380Z,89.40
2018-07-08T04:12:12.133Z,88.30
2018-07-08T04:15:15.595Z,87.20
2018-07-08T04:18:19.050Z,86.70
2018-07-08T04:24:25.526Z,79.90
2018-07-08T04:27:28.876Z,74.30
2018-07-08T04:30:33.175Z,71.10
2018-07-08T04:33:36.439Z,67.30
2018-07-08T04:36:39.764Z,64.80
2018-07-08T04:39:43.170Z,63.30
2018-07-08T04:42:46.483Z,61.40
2018-07-08T04:45:49.788Z,61.70
2018-07-08T04:48:53.014Z,62.70
2018-07-08T04:54:59.363Z,59.50
2018-07-08T04:58:02.592Z,58.30
2018-07-08T05:01:05.803Z,59.30
2018-07-08T05:04:08.954Z,58.20
2018-07-08T05:07:12.121Z,56.90
2018-07-08T05:10:15.290Z,57.00
2018-07-08T05:13:18.423Z,56.60
2018-07-08T05:16:21.608Z,56.30
2018-07-08T05:19:24.775Z,56.80
2018-07-08T05:22:28.007Z,56.20
2018-07-08T05:25:31.176Z,55.40
2018-07-08T05:28:34.368Z,55.20
2018-07-08T05:31:37.739Z,55.70
2018-07-08T05:34:41.250Z,56.80
2018-07-08T05:37:44.434Z,56.90
2018-07-08T05:40:47.613Z,56.80
2018-07-08T05:43:50.756Z,54.80
2018-07-08T05:46:53.981Z,54.80
2018-07-08T05:49:57.175Z,54.30
2018-07-08T05:53:00.365Z,54.80
2018-07-08T05:56:03.571Z,52.70
2018-07-08T05:59:06.771Z,52.40
2018-07-08T06:02:09.931Z,52.20
2018-07-08T06:05:13.077Z,50.10
2018-07-08T06:08:16.812Z,49.30
2018-07-08T06:11:19.966Z,48.10
2018-07-08T06:14:23.144Z,48.00
2018-07-08T06:20:30.273Z,47.90
2018-07-08T06:23:33.515Z,48.80
2018-07-08T06:26:36.747Z,49.50
2018-07-08T06:29:39.895Z,48.80
2018-07-08T06:32:43.050Z,47.10
2018-07-08T06:35:46.259Z,47.90
2018-07-08T06:38:49.415Z,48.10
2018-07-08T06:41:52.568Z,48.90
2018-07-08T06:44:55.725Z,48.30
2018-07-08T06:47:58.915Z,48.80
2018-07-08T06:51:02.098Z,48.00
2018-07-08T06:54:05.469Z,49.70
2018-07-08T06:57:08.675Z,50.80
2018-07-08T07:00:11.892Z,52.00
2018-07-08T07:03:15.138Z,54.60
2018-07-08T07:06:18.360Z,54.10
2018-07-08T07:09:21.592Z,50.10
2018-07-08T07:12:24.816Z,46.90
2018-07-08T07:15:28.193Z,45.00
2018-07-08T07:18:31.465Z,44.00
2018-07-08T07:21:34.710Z,44.00
2018-07-08T07:24:38.016Z,41.10
2018-07-08T07:27:41.207Z,40.70
2018-07-08T07:30:44.433Z,41.00
2018-07-08T07:33:47.689Z,40.60
2018-07-08T07:36:50.936Z,41.80
2018-07-08T07:39:54.164Z,42.00
2018-07-08T07:42:57.398Z,41.30
2018-07-08T07:46:01.258Z,41.80
2018-07-08T07:49:04.819Z,40.10
2018-07-08T07:52:08.196Z,40.00
2018-07-08T07:55:11.396Z,39.40
2018-07-08T07:58:14.568Z,39.30
2018-07-08T08:01:17.832Z,40.10
2018-07-08T08:04:21.007Z,40.10
2018-07-08T08:07:24.210Z,40.80
2018-07-08T08:10:27.413Z,40.40
2018-07-08T08:13:30.591Z,39.90
2018-07-08T08:16:33.867Z,40.30
2018-07-08T08:19:37.124Z,38.90
2018-07-08T08:22:40.331Z,37.70
2018-07-08T08:25:43.550Z,37.70
2018-07-08T08:28:46.764Z,37.40
2018-07-08T08:31:49.923Z,36.20
2018-07-08T08:34:56.200Z,36.90
2018-07-08T08:37:59.363Z,37.50
2018-07-08T08:41:02.540Z,38.40
2018-07-08T08:44:05.954Z,36.80
2018-07-08T08:47:09.102Z,35.80
2018-07-08T08:50:12.945Z,36.10
2018-07-08T08:53:16.282Z,37.40
2018-07-08T08:56:19.472Z,37.80
2018-07-08T08:59:22.684Z,37.70
2018-07-08T09:02:25.900Z,38.30
2018-07-08T09:05:29.108Z,37.90
2018-07-08T09:08:32.307Z,38.10
2018-07-08T09:11:35.509Z,38.70
2018-07-08T09:14:39.135Z,38.70
2018-07-08T09:17:42.339Z,39.90
2018-07-08T09:20:45.563Z,40.10
2018-07-08T09:23:48.841Z,38.80
2018-07-08T09:26:52.039Z,38.10
2018-07-08T09:29:55.256Z,37.60
2018-07-08T09:32:58.481Z,37.80
2018-07-08T09:36:01.683Z,37.90
2018-07-08T09:39:06.947Z,38.70
2018-07-08T09:42:10.129Z,39.80
2018-07-08T09:48:16.310Z,40.40
2018-07-08T09:51:19.567Z,39.60
2018-07-08T09:54:22.784Z,38.90
2018-07-08T09:57:25.995Z,38.20
2018-07-08T10:00:29.244Z,39.90
2018-07-08T10:03:34.115Z,42.70
2018-07-08T10:06:37.312Z,43.70
2018-07-08T10:09:40.528Z,42.10
2018-07-08T10:12:43.755Z,42.00
2018-07-08T10:15:46.956Z,41.80
2018-07-08T10:18:50.159Z,41.70
2018-07-08T10:21:53.378Z,40.90
2018-07-08T10:24:56.571Z,40.00
2018-07-08T10:28:14.754Z,39.40
2018-07-08T10:31:21.223Z,40.20
2018-07-08T10:34:24.432Z,41.80
2018-07-08T10:37:27.696Z,42.80
2018-07-08T10:40:31.092Z,42.80
2018-07-08T10:43:34.633Z,42.00
2018-07-08T10:49:40.831Z,41.10
2018-07-08T10:52:43.988Z,40.30
2018-07-08T10:55:47.212Z,41.70
2018-07-08T10:58:50.432Z,43.00
2018-07-08T11:01:53.731Z,44.60
2018-07-08T11:04:56.952Z,44.10
2018-07-08T11:08:00.152Z,43.00
2018-07-08T11:11:03.376Z,41.30
2018-07-08T11:14:06.591Z,40.40
2018-07-08T11:17:09.795Z,39.80
2018-07-08T11:20:13.103Z,39.80
2018-07-08T11:23:16.399Z,41.50
2018-07-08T11:29:22.682Z,45.70
2018-07-08T11:32:25.961Z,45.50
2018-07-08T11:35:29.202Z,44.90
2018-07-08T11:38:32.415Z,43.40
2018-07-08T11:41:35.756Z,41.80
2018-07-08T11:44:39.071Z,41.90
2018-07-08T11:47:42.326Z,42.10
2018-07-08T11:50:45.607Z,43.30
2018-07-08T11:53:48.839Z,44.50
2018-07-08T11:56:52.670Z,44.10
2018-07-08T11:59:55.948Z,45.20
2018-07-08T12:02:59.249Z,45.50
2018-07-08T12:06:02.463Z,45.00
2018-07-08T12:09:06.372Z,45.90
2018-07-08T12:12:09.579Z,46.20
2018-07-08T12:15:12.860Z,46.70
2018-07-08T12:18:16.145Z,47.80
2018-07-08T12:21:19.496Z,47.90
2018-07-08T12:24:22.675Z,47.70
2018-07-08T12:30:28.947Z,46.80
2018-07-08T12:33:32.200Z,45.60
2018-07-08T12:39:38.366Z,44.30
2018-07-08T12:42:41.591Z,45.90
2018-07-08T12:45:44.883Z,48.10
2018-07-08T12:48:48.187Z,48.90
2018-07-08T12:51:51.396Z,47.00
2018-07-08T12:54:54.635Z,46.90
2018-07-08T12:57:57.855Z,48.40
2018-07-08T13:01:01.414Z,48.80
2018-07-08T13:04:04.742Z,48.90
2018-07-08T13:07:08.083Z,47.90
2018-07-08T13:10:11.329Z,47.30
2018-07-08T13:13:14.606Z,46.30
2018-07-08T13:16:18.018Z,45.10
2018-07-08T13:19:21.528Z,45.50
2018-07-08T13:22:26.253Z,46.10
2018-07-08T13:25:29.571Z,46.30
2018-07-08T13:28:33.064Z,46.20
2018-07-08T13:31:36.747Z,47.10
2018-07-08T13:34:40.158Z,47.20
2018-07-08T13:37:43.427Z,47.70
2018-07-08T13:40:46.715Z,47.30
2018-07-08T13:43:49.942Z,47.70
2018-07-08T13:46:53.643Z,47.40
2018-07-08T13:49:56.976Z,47.70
2018-07-08T13:53:00.201Z,48.60
2018-07-08T13:56:03.423Z,49.00
2018-07-08T14:02:09.882Z,47.80
2018-07-08T14:05:13.117Z,48.00
2018-07-08T14:08:16.834Z,47.90
2018-07-08T14:11:20.037Z,48.20
2018-07-08T14:14:23.297Z,48.80
2018-07-08T14:20:29.620Z,48.80
2018-07-08T14:23:33.368Z,47.70
2018-07-08T14:26:36.561Z,46.70
2018-07-08T14:29:40.060Z,45.80
2018-07-08T14:32:43.504Z,46.30
2018-07-08T14:38:49.635Z,49.20
2018-07-08T14:41:53.204Z,49.60
2018-07-08T14:44:56.369Z,49.90
2018-07-08T14:47:59.548Z,48.40
2018-07-08T14:51:02.721Z,48.00
2018-07-08T14:54:05.891Z,48.10
2018-07-08T14:57:09.069Z,47.40
2018-07-08T15:00:12.279Z,48.30
2018-07-08T15:03:15.443Z,48.30
2018-07-08T15:06:18.720Z,48.90
2018-07-08T15:09:21.886Z,49.20
2018-07-08T15:12:25.056Z,49.40
2018-07-08T15:15:28.269Z,49.00
2018-07-08T15:18:31.564Z,49.40
2018-07-08T15:21:34.788Z,49.50
2018-07-08T15:24:37.980Z,50.50
2018-07-08T15:27:41.152Z,49.30
2018-07-08T15:30:44.315Z,48.80
2018-07-08T15:33:48.319Z,48.50
2018-07-08T15:36:51.475Z,48.80
2018-07-08T15:39:54.731Z,49.20
2018-07-08T15:42:57.927Z,49.10
2018-07-08T15:46:01.087Z,48.70
2018-07-08T15:49:04.308Z,49.30
2018-07-08T15:52:07.868Z,49.20
2018-07-08T15:55:11.081Z,49.10
2018-07-08T15:58:14.271Z,49.00
2018-07-08T16:01:17.449Z,49.00
2018-07-08T16:04:20.613Z,50.10
2018-07-08T16:07:23.800Z,50.30
2018-07-08T16:10:26.963Z,50.10
2018-07-08T16:13:30.132Z,49.90
2018-07-08T16:16:33.339Z,50.30
2018-07-08T16:19:36.561Z,49.80
2018-07-08T16:22:39.930Z,49.60
2018-07-08T16:25:43.120Z,49.40
2018-07-08T16:28:46.295Z,49.60
2018-07-08T16:31:49.594Z,49.80
2018-07-08T16:34:52.859Z,50.20
2018-07-08T16:37:56.032Z,50.70
2018-07-08T16:44:08.968Z,50.50
2018-07-08T16:47:13.396Z,50.50
2018-07-08T16:50:16.622Z,51.10
2018-07-08T16:53:19.958Z,51.60
2018-07-08T16:56:23.250Z,51.50
2018-07-08T16:59:26.348Z,51.20
2018-07-08T17:02:29.867Z,51.50
2018-07-08T17:05:33.094Z,51.80
2018-07-08T17:11:39.483Z,51.90
2018-07-08T17:14:42.736Z,51.50
2018-07-08T17:17:45.902Z,51.60
2018-07-08T17:20:49.331Z,52.00
2018-07-08T17:23:52.499Z,51.80
2018-07-08T17:26:55.674Z,51.50
2018-07-08T17:33:01.890Z,51.90
2018-07-08T17:36:05.140Z,52.50
2018-07-08T17:39:08.471Z,53.10
2018-07-08T17:42:12.131Z,53.60
2018-07-08T17:45:15.747Z,54.20
2018-07-08T17:48:18.908Z,54.10
2018-07-08T17:51:22.062Z,54.40
2018-07-08T17:54:25.223Z,54.70
2018-07-08T17:57:28.405Z,55.20
2018-07-08T18:00:31.551Z,55.40
2018-07-08T18:03:34.698Z,54.80
2018-07-08T18:06:37.865Z,54.20
2018-07-08T18:09:41.007Z,54.90
2018-07-08T18:12:44.244Z,55.50
2018-07-08T18:15:47.809Z,55.60
2018-07-08T18:18:51.883Z,55.60
2018-07-08T18:21:55.252Z,55.90
2018-07-08T18:24:58.407Z,56.20
2018-07-08T18:28:01.563Z,56.40
2018-07-08T18:34:08.287Z,57.50
2018-07-08T18:37:11.468Z,58.00
2018-07-08T18:40:15.187Z,58.50
2018-07-08T18:43:18.359Z,58.80
2018-07-08T18:46:21.908Z,59.00
2018-07-08T18:49:25.008Z,59.40
2018-07-08T18:52:28.212Z,59.60
2018-07-08T18:55:31.457Z,59.90
2018-07-08T18:58:35.178Z,60.10
2018-07-08T19:01:38.459Z,60.40
2018-07-08T19:04:41.783Z,60.90
2018-07-08T19:07:45.105Z,61.00
2018-07-08T19:10:48.526Z,61.60
2018-07-08T19:13:51.835Z,61.40
2018-07-08T19:16:55.038Z,61.80
2018-07-08T19:19:58.366Z,62.60
2018-07-08T19:23:01.697Z,62.60
2018-07-08T19:26:05.108Z,62.80
2018-07-08T19:29:08.323Z,63.10
2018-07-08T19:32:11.612Z,63.40
2018-07-08T19:35:14.991Z,63.80
2018-07-08T19:38:18.287Z,63.80
2018-07-08T19:41:21.511Z,63.90
2018-07-08T19:47:27.739Z,64.80
2018-07-08T19:50:31.004Z,65.20
2018-07-08T19:53:34.179Z,65.70
2018-07-08T19:56:37.335Z,65.80
2018-07-08T19:59:40.496Z,66.20
2018-07-08T20:02:43.655Z,66.80
2018-07-08T20:05:46.805Z,66.50
2018-07-08T20:08:50.044Z,67.00
2018-07-08T20:11:53.200Z,66.90
2018-07-08T20:14:56.388Z,67.70
2018-07-08T20:17:59.567Z,67.80
2018-07-08T20:21:02.836Z,68.40
2018-07-08T20:24:05.932Z,68.70
2018-07-08T20:27:09.120Z,68.60
2018-07-08T20:30:12.316Z,68.90
2018-07-08T20:33:15.480Z,69.80
2018-07-08T20:36:18.663Z,70.10
2018-07-08T20:39:21.859Z,70.30
2018-07-08T20:42:25.021Z,70.90
2018-07-08T20:45:28.219Z,71.10
2018-07-08T20:48:31.444Z,71.00
2018-07-08T20:51:34.947Z,71.20
2018-07-08T20:54:38.160Z,71.60
2018-07-08T20:57:41.308Z,72.20
2018-07-08T21:00:44.503Z,72.40
2018-07-08T21:03:47.636Z,72.60
2018-07-08T21:06:50.887Z,72.80
2018-07-08T21:09:54.051Z,73.10
2018-07-08T21:12:57.217Z,73.60
2018-07-08T21:16:00.455Z,73.30
2018-07-08T21:19:04.720Z,73.90
2018-07-08T21:22:07.866Z,73.40
2018-07-08T21:25:11.060Z,73.90
2018-07-08T21:28:14.251Z,74.20
2018-07-08T21:31:17.466Z,74.30
2018-07-08T21:34:20.604Z,75.00
2018-07-08T21:37:24.307Z,74.80
2018-07-08T21:40:27.500Z,75.60
2018-07-08T21:43:30.856Z,76.20
2018-07-08T21:46:34.110Z,76.00
2018-07-08T21:49:37.344Z,76.50
2018-07-08T21:52:40.563Z,76.40
2018-07-08T21:55:43.752Z,76.90
2018-07-08T21:58:46.957Z,77.20
2018-07-08T22:01:56.743Z,76.90
2018-07-08T22:04:59.932Z,77.10
2018-07-08T22:08:03.660Z,77.70
2018-07-08T22:11:08.279Z,78.00
2018-07-08T22:14:11.688Z,78.40
2018-07-08T22:17:14.911Z,79.00
2018-07-08T22:20:18.085Z,79.00
2018-07-08T22:23:21.464Z,79.40
2018-07-08T22:26:24.615Z,79.60
2018-07-08T22:29:27.771Z,79.50
2018-07-08T22:32:30.972Z,80.00
2018-07-08T22:35:34.123Z,80.80
2018-07-08T22:38:37.296Z,81.20
2018-07-08T22:41:40.604Z,81.60
2018-07-08T22:44:43.747Z,81.30
2018-07-08T22:47:46.947Z,81.20
2018-07-08T22:50:50.135Z,81.40
2018-07-08T22:53:53.951Z,82.30
2018-07-08T22:56:57.198Z,82.60
2018-07-08T23:00:11.732Z,83.40
2018-07-08T23:03:24.740Z,83.50
2018-07-08T23:06:28.008Z,83.50
2018-07-08T23:09:31.279Z,84.00
2018-07-08T23:12:34.743Z,84.70
2018-07-08T23:15:38.097Z,84.70
2018-07-08T23:18:41.371Z,85.00
2018-07-08T23:21:44.583Z,85.20
2018-07-08T23:24:47.795Z,85.30
2018-07-08T23:27:51.051Z,85.80
2018-07-08T23:30:54.247Z,85.90
2018-07-08T23:33:57.467Z,86.40
2018-07-08T23:37:00.705Z,86.60
2018-07-08T23:40:04.077Z,86.60
2018-07-08T23:43:07.665Z,85.90
2018-07-08T23:46:10.889Z,86.60
2018-07-08T23:49:14.179Z,86.70
2018-07-08T23:52:17.484Z,86.80
2018-07-08T23:55:21.015Z,87.60
2018-07-08T23:58:24.163Z,87.40
